Perez Atmospheric Data: 07/12/2019 Summary  Detailed Graphs  Station List

  Temperature     Wind Precipitation Visibility
Timestamp Air Wet
Bulb
Dew-
point
24-hr
Max
24-hr
Min
Relative
Humidity
Atmospheric
Pressure
Avg
Speed
Avg
Dir
Spot
Speed
Spot
Dir
Max
Speed
Max
Dir
  Rate Situation Start End 1 hr 3 hr 6 hr 12 hr 24 hr   Situation
Date Time °F °F °F °F °F % in Hg mph ° mph ° mph ° Y/N in/hr text Date Time Date Time in in in in in mi text
07/12/2019 12:00 AM 66.38 55.58 46.94 87.44 53.06 49.0 Not Reported 3.58 S 3.80 S 4.03 SW No 0.000 No Precipitation 06/13/2019 06:06 PM 06/13/2019 06:13 PM 0.000 0.000 0.000 0.000 0.000 Not Reported Not Reported
07/12/2019 12:05 AM 66.20 55.40 46.94 87.44 53.06 49.0 Not Reported 2.46 SW 2.24 SW 4.03 SW No 0.000 No Precipitation 06/13/2019 06:06 PM 06/13/2019 06:13 PM 0.000 0.000 0.000 0.000 0.000 Not Reported Not Reported
07/12/2019 12:10 AM 66.38 55.58 46.94 87.44 53.06 49.0 Not Reported 2.91 SW 3.13 SW 4.92 SW No 0.000 No Precipitation 06/13/2019 06:06 PM 06/13/2019 06:13 PM 0.000 0.000 0.000 0.000 0.000 Not Reported Not Reported
07/12/2019 12:15 AM 66.92 55.58 46.76 87.44 53.06 47.0 Not Reported 0.89 SW 1.57 S 4.92 SW No 0.000 No Precipitation 06/13/2019 06:06 PM 06/13/2019 06:13 PM 0.000 0.000 0.000 0.000 0.000 Not Reported Not Reported
07/12/2019 12:20 AM 66.20 55.40 46.94 87.44 53.06 49.0 Not Reported 1.79 S 1.57 S 3.80 SW No 0.000 No Precipitation 06/13/2019 06:06 PM 06/13/2019 06:13 PM 0.000 0.000 0.000 0.000 0.000 Not Reported Not Reported
07/12/2019 12:25 AM 66.02 55.40 47.12 87.44 53.06 50.0 Not Reported 2.24 S 1.34 S 3.80 SW No 0.000 No Precipitation 06/13/2019 06:06 PM 06/13/2019 06:13 PM 0.000 0.000 0.000 0.000 0.000 Not Reported Not Reported
07/12/2019 12:30 AM 65.30 55.22 47.12 87.44 53.06 51.0 Not Reported 1.34 S 0.89 S 2.68 S No 0.000 No Precipitation 06/13/2019 06:06 PM 06/13/2019 06:13 PM 0.000 0.000 0.000 0.000 0.000 Not Reported Not Reported
07/12/2019 12:35 AM 64.40 54.50 46.58 87.44 53.06 52.0 Not Reported 2.24 S 2.01 E 2.68 S No 0.000 No Precipitation 06/13/2019 06:06 PM 06/13/2019 06:13 PM 0.000 0.000 0.000 0.000 0.000 Not Reported Not Reported
07/12/2019 12:40 AM 64.40 54.68 46.76 87.44 53.06 52.0 Not Reported 0.89 SW 0.22 SW 3.13 S No 0.000 No Precipitation 06/13/2019 06:06 PM 06/13/2019 06:13 PM 0.000 0.000 0.000 0.000 0.000 Not Reported Not Reported
07/12/2019 12:45 AM 64.04 54.50 46.76 87.44 53.06 53.0 Not Reported 2.91 W 1.12 W 3.13 S No 0.000 No Precipitation 06/13/2019 06:06 PM 06/13/2019 06:13 PM 0.000 0.000 0.000 0.000 0.000 Not Reported Not Reported
07/12/2019 12:50 AM 64.04 54.68 47.12 87.44 53.06 54.0 Not Reported 0.89 NW 0.89 NW 4.70 W No 0.000 No Precipitation 06/13/2019 06:06 PM 06/13/2019 06:13 PM 0.000 0.000 0.000 0.000 0.000 Not Reported Not Reported
07/12/2019 12:55 AM 64.58 55.40 48.20 87.44 53.06 55.0 Not Reported 2.91 W 2.91 W 4.70 W No 0.000 No Precipitation 06/13/2019 06:06 PM 06/13/2019 06:13 PM 0.000 0.000 0.000 0.000 0.000 Not Reported Not Reported
07/12/2019 01:00 AM 64.40 55.40 48.56 87.44 53.06 56.0 Not Reported 3.80 W 3.36 W 4.47 W No 0.000 No Precipitation 06/13/2019 06:06 PM 06/13/2019 06:13 PM 0.000 0.000 0.000 0.000 0.000 Not Reported Not Reported
07/12/2019 01:05 AM 64.76 55.58 48.74 87.44 53.06 56.0 Not Reported 3.13 W 2.46 W 4.47 W No 0.000 No Precipitation 06/13/2019 06:06 PM 06/13/2019 06:13 PM 0.000 0.000 0.000 0.000 0.000 Not Reported Not Reported
07/12/2019 01:10 AM 64.58 55.40 48.38 87.44 53.06 55.0 Not Reported 1.79 W 1.12 W 3.58 NW No 0.000 No Precipitation 06/13/2019 06:06 PM 06/13/2019 06:13 PM 0.000 0.000 0.000 0.000 0.000 Not Reported Not Reported
07/12/2019 01:15 AM 61.88 53.42 46.40 87.44 53.06 56.0 Not Reported 0.00 NE 0.67 NE 3.58 NW No 0.000 No Precipitation 06/13/2019 06:06 PM 06/13/2019 06:13 PM 0.000 0.000 0.000 0.000 0.000 Not Reported Not Reported
07/12/2019 01:20 AM 62.42 55.04 49.46 87.44 53.06 62.0 Not Reported 2.01 E 2.01 E 2.24 E No 0.000 No Precipitation 06/13/2019 06:06 PM 06/13/2019 06:13 PM 0.000 0.000 0.000 0.000 0.000 Not Reported Not Reported
07/12/2019 01:25 AM 63.50 55.76 50.18 87.44 53.06 62.0 Not Reported 2.01 E 2.46 E 2.24 E No 0.000 No Precipitation 06/13/2019 06:06 PM 06/13/2019 06:13 PM 0.000 0.000 0.000 0.000 0.000 Not Reported Not Reported
07/12/2019 01:30 AM 61.88 54.32 48.56 87.44 53.06 61.0 Not Reported 2.24 E 2.46 E 2.46 E No 0.000 No Precipitation 06/13/2019 06:06 PM 06/13/2019 06:13 PM 0.000 0.000 0.000 0.000 0.000 Not Reported Not Reported
07/12/2019 01:35 AM 60.44 53.60 48.38 87.44 53.06 64.0 Not Reported 2.91 E 2.68 E 2.46 E No 0.000 No Precipitation 06/13/2019 06:06 PM 06/13/2019 06:13 PM 0.000 0.000 0.000 0.000 0.000 Not Reported Not Reported
07/12/2019 01:40 AM 60.80 53.78 48.20 87.44 53.06 63.0 Not Reported 2.46 E 2.68 E 3.36 E No 0.000 No Precipitation 06/13/2019 06:06 PM 06/13/2019 06:13 PM 0.000 0.000 0.000 0.000 0.000 Not Reported Not Reported
07/12/2019 01:45 AM 60.80 53.60 47.66 87.44 53.06 61.0 Not Reported 2.24 E 2.68 E 3.36 E No 0.000 No Precipitation 06/13/2019 06:06 PM 06/13/2019 06:13 PM 0.000 0.000 0.000 0.000 0.000 Not Reported Not Reported
07/12/2019 01:50 AM 60.08 53.42 47.84 87.44 53.06 64.0 Not Reported 2.46 E 2.46 E 2.68 E No 0.000 No Precipitation 06/13/2019 06:06 PM 06/13/2019 06:13 PM 0.000 0.000 0.000 0.000 0.000 Not Reported Not Reported
07/12/2019 01:55 AM 60.26 53.42 48.02 87.44 53.06 63.0 Not Reported 2.46 E 2.46 E 2.68 E No 0.000 No Precipitation 06/13/2019 06:06 PM 06/13/2019 06:13 PM 0.000 0.000 0.000 0.000 0.000 Not Reported Not Reported
07/12/2019 02:00 AM 59.90 53.06 47.30 87.44 53.06 62.0 Not Reported 2.24 E 2.24 E 2.68 E No 0.000 No Precipitation 06/13/2019 06:06 PM 06/13/2019 06:13 PM 0.000 0.000 0.000 0.000 0.000 Not Reported Not Reported
07/12/2019 02:05 AM 59.72 53.24 48.02 87.44 53.06 65.0 Not Reported 2.24 E 2.46 SE 2.68 E No 0.000 No Precipitation 06/13/2019 06:06 PM 06/13/2019 06:13 PM 0.000 0.000 0.000 0.000 0.000 Not Reported Not Reported
07/12/2019 02:10 AM 59.00 52.70 47.48 87.44 53.06 65.0 Not Reported 2.46 SE 2.46 E 2.68 SE No 0.000 No Precipitation 06/13/2019 06:06 PM 06/13/2019 06:13 PM 0.000 0.000 0.000 0.000 0.000 Not Reported Not Reported
07/12/2019 02:15 AM 59.00 52.88 47.84 87.44 53.06 66.0 Not Reported 2.01 E 1.79 E 2.68 SE No 0.000 No Precipitation 06/13/2019 06:06 PM 06/13/2019 06:13 PM 0.000 0.000 0.000 0.000 0.000 Not Reported Not Reported
07/12/2019 02:20 AM 58.82 52.88 48.20 87.44 53.06 67.0 Not Reported 2.24 E 2.01 E 2.68 E No 0.000 No Precipitation 06/13/2019 06:06 PM 06/13/2019 06:13 PM 0.000 0.000 0.000 0.000 0.000 Not Reported Not Reported
07/12/2019 02:25 AM 58.82 52.70 47.84 87.44 53.06 66.0 Not Reported 2.24 E 2.46 E 2.68 E No 0.000 No Precipitation 06/13/2019 06:06 PM 06/13/2019 06:13 PM 0.000 0.000 0.000 0.000 0.000 Not Reported Not Reported
07/12/2019 02:30 AM 58.46 52.16 47.12 87.44 53.06 65.0 Not Reported 2.24 E 2.01 E 2.68 E No 0.000 No Precipitation 06/13/2019 06:06 PM 06/13/2019 06:13 PM 0.000 0.000 0.000 0.000 0.000 Not Reported Not Reported
07/12/2019 02:35 AM 57.02 51.62 47.12 87.44 53.06 69.0 Not Reported 1.79 E 1.79 E 2.68 E No 0.000 No Precipitation 06/13/2019 06:06 PM 06/13/2019 06:13 PM 0.000 0.000 0.000 0.000 0.000 Not Reported Not Reported
07/12/2019 02:40 AM 55.76 50.36 45.68 87.44 53.06 68.0 Not Reported 2.24 SE 2.01 SE 2.24 SE No 0.000 No Precipitation 06/13/2019 06:06 PM 06/13/2019 06:13 PM 0.000 0.000 0.000 0.000 0.000 Not Reported Not Reported
07/12/2019 02:45 AM 54.32 49.46 44.96 87.44 53.06 70.0 Not Reported 2.24 SE 2.46 SE 2.24 SE No 0.000 No Precipitation 06/13/2019 06:06 PM 06/13/2019 06:13 PM 0.000 0.000 0.000 0.000 0.000 Not Reported Not Reported
07/12/2019 02:50 AM 55.76 50.90 46.76 87.44 53.06 72.0 Not Reported 2.46 SE 2.46 SE 2.68 SE No 0.000 No Precipitation 06/13/2019 06:06 PM 06/13/2019 06:13 PM 0.000 0.000 0.000 0.000 0.000 Not Reported Not Reported
07/12/2019 02:55 AM 55.40 50.36 46.04 87.44 53.06 70.0 Not Reported 2.24 E 2.24 E 2.68 SE No 0.000 No Precipitation 06/13/2019 06:06 PM 06/13/2019 06:13 PM 0.000 0.000 0.000 0.000 0.000 Not Reported Not Reported
07/12/2019 03:00 AM 55.40 50.18 45.68 87.44 53.06 69.0 Not Reported 2.01 E 2.01 E 3.13 E No 0.000 No Precipitation 06/13/2019 06:06 PM 06/13/2019 06:13 PM 0.000 0.000 0.000 0.000 0.000 Not Reported Not Reported
07/12/2019 03:05 AM 53.78 48.92 44.60 87.44 53.06 70.0 Not Reported 2.24 E 2.46 SE 3.13 E No 0.000 No Precipitation 06/13/2019 06:06 PM 06/13/2019 06:13 PM 0.000 0.000 0.000 0.000 0.000 Not Reported Not Reported
07/12/2019 03:10 AM 53.78 48.92 44.60 87.44 53.06 70.0 Not Reported 2.01 E 2.01 E 2.46 E No 0.000 No Precipitation 06/13/2019 06:06 PM 06/13/2019 06:13 PM 0.000 0.000 0.000 0.000 0.000 Not Reported Not Reported
07/12/2019 03:15 AM 54.68 50.00 45.86 87.44 53.06 72.0 Not Reported 3.13 E 2.91 E 2.46 E No 0.000 No Precipitation 06/13/2019 06:06 PM 06/13/2019 06:13 PM 0.000 0.000 0.000 0.000 0.000 Not Reported Not Reported
07/12/2019 03:20 AM 55.22 49.82 44.96 87.44 53.06 68.0 Not Reported 2.68 E 2.91 SE 3.13 E No 0.000 No Precipitation 06/13/2019 06:06 PM 06/13/2019 06:13 PM 0.000 0.000 0.000 0.000 0.000 Not Reported Not Reported
07/12/2019 03:25 AM 55.04 50.18 45.86 87.44 53.06 71.0 Not Reported 2.46 E 2.46 SE 3.13 E No 0.000 No Precipitation 06/13/2019 06:06 PM 06/13/2019 06:13 PM 0.000 0.000 0.000 0.000 0.000 Not Reported Not Reported
07/12/2019 03:30 AM 54.68 50.18 46.40 87.44 53.06 73.0 Not Reported 2.68 E 2.46 E 3.13 E No 0.000 No Precipitation 06/13/2019 06:06 PM 06/13/2019 06:13 PM 0.000 0.000 0.000 0.000 0.000 Not Reported Not Reported
07/12/2019 03:35 AM 55.04 50.36 46.40 87.44 53.06 72.0 Not Reported 1.79 E 1.57 SE 3.13 E No 0.000 No Precipitation 06/13/2019 06:06 PM 06/13/2019 06:13 PM 0.000 0.000 0.000 0.000 0.000 Not Reported Not Reported
07/12/2019 03:40 AM 54.86 50.36 46.58 87.44 53.06 73.0 Not Reported 2.24 E 2.01 E 2.46 E No 0.000 No Precipitation 06/13/2019 06:06 PM 06/13/2019 06:13 PM 0.000 0.000 0.000 0.000 0.000 Not Reported Not Reported
07/12/2019 03:45 AM 55.04 50.36 46.40 87.44 53.06 72.0 Not Reported 1.79 E 1.79 E 2.46 E No 0.000 No Precipitation 06/13/2019 06:06 PM 06/13/2019 06:13 PM 0.000 0.000 0.000 0.000 0.000 Not Reported Not Reported
07/12/2019 03:50 AM 54.86 50.54 46.76 87.44 53.06 74.0 Not Reported 2.01 E 2.01 E 2.24 E No 0.000 No Precipitation 06/13/2019 06:06 PM 06/13/2019 06:13 PM 0.000 0.000 0.000 0.000 0.000 Not Reported Not Reported
07/12/2019 03:55 AM 55.22 50.90 47.30 87.44 53.06 74.0 Not Reported 2.01 E 2.24 E 2.24 E No 0.000 No Precipitation 06/13/2019 06:06 PM 06/13/2019 06:13 PM 0.000 0.000 0.000 0.000 0.000 Not Reported Not Reported
07/12/2019 04:00 AM 54.68 50.54 46.94 87.44 53.06 75.0 Not Reported 2.01 E 2.24 E 2.24 E No 0.000 No Precipitation 06/13/2019 06:06 PM 06/13/2019 06:13 PM 0.000 0.000 0.000 0.000 0.000 Not Reported Not Reported
07/12/2019 04:05 AM 54.32 50.36 46.94 87.44 53.06 76.0 Not Reported 2.01 E 1.79 E 2.24 E No 0.000 No Precipitation 06/13/2019 06:06 PM 06/13/2019 06:13 PM 0.000 0.000 0.000 0.000 0.000 Not Reported Not Reported
07/12/2019 04:10 AM 54.32 50.36 46.94 87.44 53.06 76.0 Not Reported 1.34 E 1.57 E 2.46 E No 0.000 No Precipitation 06/13/2019 06:06 PM 06/13/2019 06:13 PM 0.000 0.000 0.000 0.000 0.000 Not Reported Not Reported
07/12/2019 04:15 AM 53.24 49.46 45.86 87.44 53.06 75.0 Not Reported 2.24 E 2.68 E 2.46 E No 0.000 No Precipitation 06/13/2019 06:06 PM 06/13/2019 06:13 PM 0.000 0.000 0.000 0.000 0.000 Not Reported Not Reported
07/12/2019 04:20 AM 53.42 49.46 46.04 87.44 53.06 76.0 Not Reported 2.24 E 2.24 E 2.68 E No 0.000 No Precipitation 06/13/2019 06:06 PM 06/13/2019 06:13 PM 0.000 0.000 0.000 0.000 0.000 Not Reported Not Reported
07/12/2019 04:25 AM 52.88 48.92 45.14 87.44 52.88 74.0 Not Reported 2.46 E 2.91 E 2.68 E No 0.000 No Precipitation 06/13/2019 06:06 PM 06/13/2019 06:13 PM 0.000 0.000 0.000 0.000 0.000 Not Reported Not Reported
07/12/2019 04:30 AM 51.80 48.20 44.96 87.44 51.80 77.0 Not Reported 2.91 E 2.68 E 3.80 E No 0.000 No Precipitation 06/13/2019 06:06 PM 06/13/2019 06:13 PM 0.000 0.000 0.000 0.000 0.000 Not Reported Not Reported
07/12/2019 04:35 AM 52.34 48.92 45.68 87.44 51.62 77.0 Not Reported 2.46 E 2.46 E 3.80 E No 0.000 No Precipitation 06/13/2019 06:06 PM 06/13/2019 06:13 PM 0.000 0.000 0.000 0.000 0.000 Not Reported Not Reported
07/12/2019 04:40 AM 52.52 48.74 45.32 87.44 51.62 76.0 Not Reported 3.13 E 3.13 E 3.13 E No 0.000 No Precipitation 06/13/2019 06:06 PM 06/13/2019 06:13 PM 0.000 0.000 0.000 0.000 0.000 Not Reported Not Reported
07/12/2019 04:45 AM 52.88 49.28 46.22 87.44 51.62 78.0 Not Reported 4.03 SE 4.03 SE 3.13 E No 0.000 No Precipitation 06/13/2019 06:06 PM 06/13/2019 06:13 PM 0.000 0.000 0.000 0.000 0.000 Not Reported Not Reported
07/12/2019 04:50 AM 52.88 49.28 46.04 87.44 51.62 77.0 Not Reported 4.25 SE 4.25 SE 4.25 SE No 0.000 No Precipitation 06/13/2019 06:06 PM 06/13/2019 06:13 PM 0.000 0.000 0.000 0.000 0.000 Not Reported Not Reported
07/12/2019 04:55 AM 52.70 48.74 45.14 87.44 51.62 75.0 Not Reported 3.36 E 3.80 E 4.25 SE No 0.000 No Precipitation 06/13/2019 06:06 PM 06/13/2019 06:13 PM 0.000 0.000 0.000 0.000 0.000 Not Reported Not Reported
07/12/2019 05:00 AM 53.24 49.64 46.76 87.44 51.62 78.0 Not Reported 3.58 SE 3.36 SE 4.03 E No 0.000 No Precipitation 06/13/2019 06:06 PM 06/13/2019 06:13 PM 0.000 0.000 0.000 0.000 0.000 Not Reported Not Reported
07/12/2019 05:05 AM 53.42 49.82 46.76 87.44 51.62 77.0 Not Reported 3.13 SE 3.58 SE 4.03 E No 0.000 No Precipitation 06/13/2019 06:06 PM 06/13/2019 06:13 PM 0.000 0.000 0.000 0.000 0.000 Not Reported Not Reported
07/12/2019 05:10 AM 52.16 48.74 45.50 87.44 51.62 77.0 Not Reported 4.25 SE 4.25 SE 4.25 SE No 0.000 No Precipitation 06/13/2019 06:06 PM 06/13/2019 06:13 PM 0.000 0.000 0.000 0.000 0.000 Not Reported Not Reported
07/12/2019 05:15 AM 52.88 49.46 46.58 87.44 51.62 78.0 Not Reported 3.58 SE 2.68 SE 4.25 SE No 0.000 No Precipitation 06/13/2019 06:06 PM 06/13/2019 06:13 PM 0.000 0.000 0.000 0.000 0.000 Not Reported Not Reported
07/12/2019 05:20 AM 53.24 49.28 46.04 87.44 51.62 76.0 Not Reported 2.91 SE 2.91 SE 4.03 SE No 0.000 No Precipitation 06/13/2019 06:06 PM 06/13/2019 06:13 PM 0.000 0.000 0.000 0.000 0.000 Not Reported Not Reported
07/12/2019 05:25 AM 52.16 48.74 45.68 87.44 51.62 78.0 Not Reported 4.03 SE 4.25 SE 4.03 SE No 0.000 No Precipitation 06/13/2019 06:06 PM 06/13/2019 06:13 PM 0.000 0.000 0.000 0.000 0.000 Not Reported Not Reported
07/12/2019 05:30 AM 52.16 48.92 46.04 87.44 51.62 79.0 Not Reported 3.36 E 3.36 E 4.25 SE No 0.000 No Precipitation 06/13/2019 06:06 PM 06/13/2019 06:13 PM 0.000 0.000 0.000 0.000 0.000 Not Reported Not Reported
07/12/2019 05:35 AM 52.34 49.10 45.86 87.44 51.62 78.0 Not Reported 2.24 E 3.13 SE 4.25 SE No 0.000 No Precipitation 06/13/2019 06:06 PM 06/13/2019 06:13 PM 0.000 0.000 0.000 0.000 0.000 Not Reported Not Reported
07/12/2019 05:40 AM 52.88 49.64 46.94 87.44 51.62 79.0 Not Reported 3.36 SE 3.36 SE 3.58 SE No 0.000 No Precipitation 06/13/2019 06:06 PM 06/13/2019 06:13 PM 0.000 0.000 0.000 0.000 0.000 Not Reported Not Reported
07/12/2019 05:45 AM 50.90 47.12 43.34 87.44 50.90 74.0 Not Reported 2.91 SE 2.91 SE 3.58 SE No 0.000 No Precipitation 06/13/2019 06:06 PM 06/13/2019 06:13 PM 0.000 0.000 0.000 0.000 0.000 Not Reported Not Reported
07/12/2019 05:50 AM 49.10 46.22 43.70 87.44 48.74 81.0 Not Reported 2.68 SE 2.68 SE 3.58 SE No 0.000 No Precipitation 06/13/2019 06:06 PM 06/13/2019 06:13 PM 0.000 0.000 0.000 0.000 0.000 Not Reported Not Reported
07/12/2019 05:55 AM 49.46 46.04 42.80 87.44 48.74 77.0 Not Reported 2.24 SE 0.89 SE 3.58 SE No 0.000 No Precipitation 06/13/2019 06:06 PM 06/13/2019 06:13 PM 0.000 0.000 0.000 0.000 0.000 Not Reported Not Reported
07/12/2019 06:00 AM 49.64 46.40 43.52 87.44 48.74 79.0 Not Reported 0.45 S 0.00 S 3.36 SE No 0.000 No Precipitation 06/13/2019 06:06 PM 06/13/2019 06:13 PM 0.000 0.000 0.000 0.000 0.000 Not Reported Not Reported
07/12/2019 06:05 AM 49.46 46.40 43.52 87.44 48.74 79.0 Not Reported 0.67 SE 0.89 SE 3.36 SE No 0.000 No Precipitation 06/13/2019 06:06 PM 06/13/2019 06:13 PM 0.000 0.000 0.000 0.000 0.000 Not Reported Not Reported
07/12/2019 06:10 AM 50.18 46.94 43.88 87.44 48.74 78.0 Not Reported 1.57 S 1.79 S 1.79 S No 0.000 No Precipitation 06/13/2019 06:06 PM 06/13/2019 06:13 PM 0.000 0.000 0.000 0.000 0.000 Not Reported Not Reported
07/12/2019 06:15 AM 50.00 46.94 44.06 87.44 48.74 79.0 Not Reported 0.89 S 0.89 S 1.79 S No 0.000 No Precipitation 06/13/2019 06:06 PM 06/13/2019 06:13 PM 0.000 0.000 0.000 0.000 0.000 Not Reported Not Reported
07/12/2019 06:20 AM 49.82 47.12 44.60 87.44 48.74 82.0 Not Reported 1.34 SE 1.79 SE 1.79 S No 0.000 No Precipitation 06/13/2019 06:06 PM 06/13/2019 06:13 PM 0.000 0.000 0.000 0.000 0.000 Not Reported Not Reported
07/12/2019 06:25 AM 49.82 47.30 45.14 87.44 48.74 84.0 Not Reported 1.57 SE 1.34 SE 1.79 S No 0.000 No Precipitation 06/13/2019 06:06 PM 06/13/2019 06:13 PM 0.000 0.000 0.000 0.000 0.000 Not Reported Not Reported
07/12/2019 06:30 AM 48.02 45.50 42.98 87.44 48.02 82.0 Not Reported 2.24 SE 2.24 SE 2.24 SE No 0.000 No Precipitation 06/13/2019 06:06 PM 06/13/2019 06:13 PM 0.000 0.000 0.000 0.000 0.000 Not Reported Not Reported
07/12/2019 06:35 AM 48.20 46.22 44.24 87.44 47.30 85.0 Not Reported 2.91 SE 3.80 SE 2.24 SE No 0.000 No Precipitation 06/13/2019 06:06 PM 06/13/2019 06:13 PM 0.000 0.000 0.000 0.000 0.000 Not Reported Not Reported
07/12/2019 06:40 AM 48.02 45.86 43.88 87.44 47.30 85.0 Not Reported 3.80 E 3.58 E 3.80 SE No 0.000 No Precipitation 06/13/2019 06:06 PM 06/13/2019 06:13 PM 0.000 0.000 0.000 0.000 0.000 Not Reported Not Reported
07/12/2019 06:45 AM 48.74 46.76 44.96 87.44 47.30 86.0 Not Reported 3.36 E 3.13 E 3.80 SE No 0.000 No Precipitation 06/13/2019 06:06 PM 06/13/2019 06:13 PM 0.000 0.000 0.000 0.000 0.000 Not Reported Not Reported
07/12/2019 06:50 AM 49.10 46.76 44.60 87.44 47.30 84.0 Not Reported 3.36 E 3.13 SE 4.25 E No 0.000 No Precipitation 06/13/2019 06:06 PM 06/13/2019 06:13 PM 0.000 0.000 0.000 0.000 0.000 Not Reported Not Reported
07/12/2019 06:55 AM 48.20 46.04 43.70 87.44 47.30 84.0 Not Reported 1.79 E 2.01 E 4.25 E No 0.000 No Precipitation 06/13/2019 06:06 PM 06/13/2019 06:13 PM 0.000 0.000 0.000 0.000 0.000 Not Reported Not Reported
07/12/2019 07:00 AM 49.64 47.48 45.50 87.44 47.30 85.0 Not Reported 2.46 E 3.13 E 3.13 E No 0.000 No Precipitation 06/13/2019 06:06 PM 06/13/2019 06:13 PM 0.000 0.000 0.000 0.000 0.000 Not Reported Not Reported
07/12/2019 07:05 AM 50.00 47.48 45.32 87.44 47.30 83.0 Not Reported 2.91 E 2.68 E 3.13 E No 0.000 No Precipitation 06/13/2019 06:06 PM 06/13/2019 06:13 PM 0.000 0.000 0.000 0.000 0.000 Not Reported Not Reported
07/12/2019 07:10 AM 50.36 47.48 44.96 87.44 47.30 81.0 Not Reported 3.36 E 3.58 E 4.25 E No 0.000 No Precipitation 06/13/2019 06:06 PM 06/13/2019 06:13 PM 0.000 0.000 0.000 0.000 0.000 Not Reported Not Reported
07/12/2019 07:15 AM 50.18 47.48 44.96 87.44 47.30 81.0 Not Reported 4.70 SE 5.14 SE 4.25 E No 0.000 No Precipitation 06/13/2019 06:06 PM 06/13/2019 06:13 PM 0.000 0.000 0.000 0.000 0.000 Not Reported Not Reported
07/12/2019 07:20 AM 51.26 48.38 45.86 87.44 47.30 81.0 Not Reported 4.47 SE 4.25 SE 5.14 SE No 0.000 No Precipitation 06/13/2019 06:06 PM 06/13/2019 06:13 PM 0.000 0.000 0.000 0.000 0.000 Not Reported Not Reported
07/12/2019 07:25 AM 51.98 48.92 46.40 87.44 47.30 81.0 Not Reported 4.47 SE 4.47 SE 5.14 SE No 0.000 No Precipitation 06/13/2019 06:06 PM 06/13/2019 06:13 PM 0.000 0.000 0.000 0.000 0.000 Not Reported Not Reported
07/12/2019 07:30 AM 52.52 49.10 46.04 87.44 47.30 78.0 Not Reported 3.13 E 2.91 E 4.70 E No 0.000 No Precipitation 06/13/2019 06:06 PM 06/13/2019 06:13 PM 0.000 0.000 0.000 0.000 0.000 Not Reported Not Reported
07/12/2019 07:35 AM 53.06 49.64 46.58 87.44 47.30 78.0 Not Reported 2.91 SE 4.25 SE 4.70 E No 0.000 No Precipitation 06/13/2019 06:06 PM 06/13/2019 06:13 PM 0.000 0.000 0.000 0.000 0.000 Not Reported Not Reported
07/12/2019 07:40 AM 54.68 50.90 47.66 87.44 47.30 76.0 Not Reported 3.58 SE 3.36 SE 4.25 SE No 0.000 No Precipitation 06/13/2019 06:06 PM 06/13/2019 06:13 PM 0.000 0.000 0.000 0.000 0.000 Not Reported Not Reported
07/12/2019 07:45 AM 55.76 51.44 48.02 87.44 47.30 75.0 Not Reported 2.91 SE 2.68 SE 4.25 SE No 0.000 No Precipitation 06/13/2019 06:06 PM 06/13/2019 06:13 PM 0.000 0.000 0.000 0.000 0.000 Not Reported Not Reported
07/12/2019 07:50 AM 56.48 51.62 47.84 87.44 47.30 72.0 Not Reported 2.01 SE 2.01 SE 3.36 E No 0.000 No Precipitation 06/13/2019 06:06 PM 06/13/2019 06:13 PM 0.000 0.000 0.000 0.000 0.000 Not Reported Not Reported
07/12/2019 07:55 AM 57.56 52.52 48.56 87.44 47.30 71.0 Not Reported 0.89 SE 1.12 SE 3.36 E No 0.000 No Precipitation 06/13/2019 06:06 PM 06/13/2019 06:13 PM 0.000 0.000 0.000 0.000 0.000 Not Reported Not Reported
07/12/2019 08:00 AM 59.36 53.60 48.92 87.44 47.30 68.0 Not Reported 0.89 SE 0.67 SE 2.01 SE No 0.000 No Precipitation 06/13/2019 06:06 PM 06/13/2019 06:13 PM 0.000 0.000 0.000 0.000 0.000 Not Reported Not Reported
07/12/2019 08:05 AM 60.80 54.32 49.46 87.44 47.30 66.0 Not Reported 1.12 E 0.89 SE 2.01 SE No 0.000 No Precipitation 06/13/2019 06:06 PM 06/13/2019 06:13 PM 0.000 0.000 0.000 0.000 0.000 Not Reported Not Reported
07/12/2019 08:10 AM 61.88 55.04 49.82 87.44 47.30 64.0 Not Reported 1.12 E 0.89 E 1.34 E No 0.000 No Precipitation 06/13/2019 06:06 PM 06/13/2019 06:13 PM 0.000 0.000 0.000 0.000 0.000 Not Reported Not Reported
07/12/2019 08:15 AM 62.24 55.04 49.64 87.44 47.30 63.0 Not Reported 1.34 SE 2.01 SE 1.34 E No 0.000 No Precipitation 06/13/2019 06:06 PM 06/13/2019 06:13 PM 0.000 0.000 0.000 0.000 0.000 Not Reported Not Reported
07/12/2019 08:20 AM 62.60 55.22 49.82 87.44 47.30 63.0 Not Reported 2.24 SE 2.46 SE 2.68 SE No 0.000 No Precipitation 06/13/2019 06:06 PM 06/13/2019 06:13 PM 0.000 0.000 0.000 0.000 0.000 Not Reported Not Reported
07/12/2019 08:25 AM 62.78 55.40 49.82 87.44 47.30 62.0 Not Reported 2.24 SE 2.01 SE 2.68 SE No 0.000 No Precipitation 06/13/2019 06:06 PM 06/13/2019 06:13 PM 0.000 0.000 0.000 0.000 0.000 Not Reported Not Reported
07/12/2019 08:30 AM 65.84 57.20 50.90 87.44 47.30 58.0 Not Reported 1.34 SE 0.67 SE 2.46 SE No 0.000 No Precipitation 06/13/2019 06:06 PM 06/13/2019 06:13 PM 0.000 0.000 0.000 0.000 0.000 Not Reported Not Reported
07/12/2019 08:35 AM 66.74 57.56 50.90 87.44 47.30 56.0 Not Reported 1.12 E 1.34 SE 2.46 SE No 0.000 No Precipitation 06/13/2019 06:06 PM 06/13/2019 06:13 PM 0.000 0.000 0.000 0.000 0.000 Not Reported Not Reported
07/12/2019 08:40 AM 67.82 57.74 50.54 87.44 47.30 54.0 Not Reported 0.67 E 0.89 E 1.34 E No 0.000 No Precipitation 06/13/2019 06:06 PM 06/13/2019 06:13 PM 0.000 0.000 0.000 0.000 0.000 Not Reported Not Reported
07/12/2019 08:45 AM 67.64 57.56 50.36 87.44 47.30 53.0 Not Reported 1.12 E 1.12 E 1.34 E No 0.000 No Precipitation 06/13/2019 06:06 PM 06/13/2019 06:13 PM 0.000 0.000 0.000 0.000 0.000 Not Reported Not Reported
07/12/2019 08:50 AM 66.74 57.38 50.54 87.44 47.30 55.0 Not Reported 1.57 SE 1.34 SE 2.01 SE No 0.000 No Precipitation 06/13/2019 06:06 PM 06/13/2019 06:13 PM 0.000 0.000 0.000 0.000 0.000 Not Reported Not Reported
07/12/2019 08:55 AM 68.36 58.10 50.72 87.44 47.30 53.0 Not Reported 0.45 E 2.24 NE 2.01 SE No 0.000 No Precipitation 06/13/2019 06:06 PM 06/13/2019 06:13 PM 0.000 0.000 0.000 0.000 0.000 Not Reported Not Reported
07/12/2019 09:00 AM 68.90 58.64 51.44 87.44 47.30 53.0 Not Reported 0.00 NW 0.00 NE 2.68 NE No 0.000 No Precipitation 06/13/2019 06:06 PM 06/13/2019 06:13 PM 0.000 0.000 0.000 0.000 0.000 Not Reported Not Reported
07/12/2019 09:05 AM 68.90 58.46 51.08 87.44 47.30 53.0 Not Reported 0.45 N 0.00 NW 2.68 NE No 0.000 No Precipitation 06/13/2019 06:06 PM 06/13/2019 06:13 PM 0.000 0.000 0.000 0.000 0.000 Not Reported Not Reported
07/12/2019 09:10 AM 69.62 58.82 51.26 87.44 47.30 52.0 Not Reported 0.89 SE 1.57 N 2.01 N No 0.000 No Precipitation 06/13/2019 06:06 PM 06/13/2019 06:13 PM 0.000 0.000 0.000 0.000 0.000 Not Reported Not Reported
07/12/2019 09:15 AM 68.72 58.28 50.90 87.44 47.30 53.0 Not Reported 1.79 N 0.22 W 2.01 N No 0.000 No Precipitation 06/13/2019 06:06 PM 06/13/2019 06:13 PM 0.000 0.000 0.000 0.000 0.000 Not Reported Not Reported
07/12/2019 09:20 AM 70.52 59.18 51.08 87.44 47.30 50.0 Not Reported 0.45 E 1.34 SE 2.91 N No 0.000 No Precipitation 06/13/2019 06:06 PM 06/13/2019 06:13 PM 0.000 0.000 0.000 0.000 0.000 Not Reported Not Reported
07/12/2019 09:25 AM 70.34 59.00 51.08 87.44 47.30 50.0 Not Reported 0.67 SE 0.89 E 2.91 N No 0.000 No Precipitation 06/13/2019 06:06 PM 06/13/2019 06:13 PM 0.000 0.000 0.000 0.000 0.000 Not Reported Not Reported
07/12/2019 09:30 AM 71.96 59.90 51.62 87.44 47.30 48.0 Not Reported 0.45 E 0.45 NE 1.79 E No 0.000 No Precipitation 06/13/2019 06:06 PM 06/13/2019 06:13 PM 0.000 0.000 0.000 0.000 0.000 Not Reported Not Reported
07/12/2019 09:35 AM 71.42 59.36 51.08 87.44 47.30 48.0 Not Reported 0.22 NW 0.45 W 1.79 E No 0.000 No Precipitation 06/13/2019 06:06 PM 06/13/2019 06:13 PM 0.000 0.000 0.000 0.000 0.000 Not Reported Not Reported
07/12/2019 09:40 AM 71.06 59.36 51.44 87.44 47.30 50.0 Not Reported 1.79 SW 2.68 SW 2.68 SW No 0.000 No Precipitation 06/13/2019 06:06 PM 06/13/2019 06:13 PM 0.000 0.000 0.000 0.000 0.000 Not Reported Not Reported
07/12/2019 09:45 AM 71.42 59.18 50.54 87.44 47.30 47.0 Not Reported 2.46 SE 3.80 E 2.68 SW No 0.000 No Precipitation 06/13/2019 06:06 PM 06/13/2019 06:13 PM 0.000 0.000 0.000 0.000 0.000 Not Reported Not Reported
07/12/2019 09:50 AM 71.60 59.36 50.90 87.44 47.30 47.0 Not Reported 1.57 NE 0.67 E 3.80 E No 0.000 No Precipitation 06/13/2019 06:06 PM 06/13/2019 06:13 PM 0.000 0.000 0.000 0.000 0.000 Not Reported Not Reported
07/12/2019 09:55 AM 73.76 60.62 51.62 87.44 47.30 46.0 Not Reported 1.12 SW 1.79 SW 3.80 E No 0.000 No Precipitation 06/13/2019 06:06 PM 06/13/2019 06:13 PM 0.000 0.000 0.000 0.000 0.000 Not Reported Not Reported
07/12/2019 10:00 AM 73.76 60.44 51.26 87.44 47.30 45.0 Not Reported 1.79 SW 1.79 SW 2.91 SW No 0.000 No Precipitation 06/13/2019 06:06 PM 06/13/2019 06:13 PM 0.000 0.000 0.000 0.000 0.000 Not Reported Not Reported
07/12/2019 10:05 AM 73.58 60.08 50.54 87.44 47.30 44.0 Not Reported 1.57 S 3.58 SE 2.91 SW No 0.000 No Precipitation 06/13/2019 06:06 PM 06/13/2019 06:13 PM 0.000 0.000 0.000 0.000 0.000 Not Reported Not Reported
07/12/2019 10:10 AM 73.58 59.90 50.36 87.44 47.30 44.0 Not Reported 3.13 SW 3.58 SW 5.37 S No 0.000 No Precipitation 06/13/2019 06:06 PM 06/13/2019 06:13 PM 0.000 0.000 0.000 0.000 0.000 Not Reported Not Reported
07/12/2019 10:15 AM 74.12 60.08 50.18 87.44 47.30 42.0 Not Reported 1.34 S 5.37 W 5.37 S No 0.000 No Precipitation 06/13/2019 06:06 PM 06/13/2019 06:13 PM 0.000 0.000 0.000 0.000 0.000 Not Reported Not Reported
07/12/2019 10:20 AM 74.66 60.80 51.44 87.44 47.30 44.0 Not Reported 3.36 SW 4.70 SW 5.37 W No 0.000 No Precipitation 06/13/2019 06:06 PM 06/13/2019 06:13 PM 0.000 0.000 0.000 0.000 0.000 Not Reported Not Reported
07/12/2019 10:25 AM 74.48 60.26 50.54 87.44 47.30 42.0 Not Reported 1.34 S 1.34 SW 5.37 W No 0.000 No Precipitation 06/13/2019 06:06 PM 06/13/2019 06:13 PM 0.000 0.000 0.000 0.000 0.000 Not Reported Not Reported
07/12/2019 10:30 AM 75.38 61.16 51.62 87.44 47.30 43.0 Not Reported 2.46 SW 2.91 W 4.70 SW No 0.000 No Precipitation 06/13/2019 06:06 PM 06/13/2019 06:13 PM 0.000 0.000 0.000 0.000 0.000 Not Reported Not Reported
07/12/2019 10:35 AM 74.12 60.62 51.26 87.44 47.30 44.0 Not Reported 3.80 W 4.25 W 4.70 SW No 0.000 No Precipitation 06/13/2019 06:06 PM 06/13/2019 06:13 PM 0.000 0.000 0.000 0.000 0.000 Not Reported Not Reported
07/12/2019 10:40 AM 75.38 61.34 52.16 87.44 47.30 44.0 Not Reported 2.46 W 1.57 W 6.49 SW No 0.000 No Precipitation 06/13/2019 06:06 PM 06/13/2019 06:13 PM 0.000 0.000 0.000 0.000 0.000 Not Reported Not Reported
07/12/2019 10:45 AM 76.10 60.98 50.72 87.44 47.30 41.0 Not Reported 2.68 SW 2.91 SE 6.49 SW No 0.000 No Precipitation 06/13/2019 06:06 PM 06/13/2019 06:13 PM 0.000 0.000 0.000 0.000 0.000 Not Reported Not Reported
07/12/2019 10:50 AM 75.92 61.16 51.26 87.44 47.30 42.0 Not Reported 2.91 SW 2.24 SW 5.59 S No 0.000 No Precipitation 06/13/2019 06:06 PM 06/13/2019 06:13 PM 0.000 0.000 0.000 0.000 0.000 Not Reported Not Reported
07/12/2019 10:55 AM 75.92 61.16 51.08 87.44 47.30 41.0 Not Reported 1.57 SE 2.24 W 5.59 S No 0.000 No Precipitation 06/13/2019 06:06 PM 06/13/2019 06:13 PM 0.000 0.000 0.000 0.000 0.000 Not Reported Not Reported
07/12/2019 11:00 AM 77.36 61.70 51.26 87.44 47.30 39.0 Not Reported 3.13 W 4.70 SW 5.82 SW No 0.000 No Precipitation 06/13/2019 06:06 PM 06/13/2019 06:13 PM 0.000 0.000 0.000 0.000 0.000 Not Reported Not Reported
07/12/2019 11:05 AM 77.36 61.34 50.36 87.44 47.30 38.0 Not Reported 0.22 S 2.46 SW 5.82 SW No 0.000 No Precipitation 06/13/2019 06:06 PM 06/13/2019 06:13 PM 0.000 0.000 0.000 0.000 0.000 Not Reported Not Reported
07/12/2019 11:10 AM 78.62 62.06 50.90 87.44 47.30 38.0 Not Reported 2.01 SE 1.57 E 4.03 S No 0.000 No Precipitation 06/13/2019 06:06 PM 06/13/2019 06:13 PM 0.000 0.000 0.000 0.000 0.000 Not Reported Not Reported
07/12/2019 11:15 AM 77.18 60.80 49.10 87.44 47.30 37.0 Not Reported 2.46 SE 2.68 SE 4.03 S No 0.000 No Precipitation 06/13/2019 06:06 PM 06/13/2019 06:13 PM 0.000 0.000 0.000 0.000 0.000 Not Reported Not Reported
07/12/2019 11:20 AM 77.54 60.98 49.46 87.44 47.30 37.0 Not Reported 1.34 S 0.89 S 5.37 SW No 0.000 No Precipitation 06/13/2019 06:06 PM 06/13/2019 06:13 PM 0.000 0.000 0.000 0.000 0.000 Not Reported Not Reported
07/12/2019 11:25 AM 78.08 61.52 50.18 87.44 47.30 37.0 Not Reported 4.25 S 2.68 SW 5.37 SW No 0.000 No Precipitation 06/13/2019 06:06 PM 06/13/2019 06:13 PM 0.000 0.000 0.000 0.000 0.000 Not Reported Not Reported
07/12/2019 11:30 AM 77.90 61.16 49.82 87.44 47.30 37.0 Not Reported 4.47 S 6.04 S 7.16 S No 0.000 No Precipitation 06/13/2019 06:06 PM 06/13/2019 06:13 PM 0.000 0.000 0.000 0.000 0.000 Not Reported Not Reported
07/12/2019 11:35 AM 77.90 61.16 49.82 87.44 47.30 37.0 Not Reported 3.36 W 5.14 W 7.16 S No 0.000 No Precipitation 06/13/2019 06:06 PM 06/13/2019 06:13 PM 0.000 0.000 0.000 0.000 0.000 Not Reported Not Reported
07/12/2019 11:40 AM 80.42 61.88 49.10 87.44 47.30 33.0 Not Reported 5.59 SW 5.14 SW 7.83 SW No 0.000 No Precipitation 06/13/2019 06:06 PM 06/13/2019 06:13 PM 0.000 0.000 0.000 0.000 0.000 Not Reported Not Reported
07/12/2019 11:45 AM 78.80 60.98 48.38 87.44 47.30 34.0 Not Reported 5.14 SW 3.36 NW 7.83 SW No 0.000 No Precipitation 06/13/2019 06:06 PM 06/13/2019 06:13 PM 0.000 0.000 0.000 0.000 0.000 Not Reported Not Reported
07/12/2019 11:50 AM 79.70 61.52 49.10 87.44 47.30 34.0 Not Reported 4.03 SW 6.04 SW 8.50 SW No 0.000 No Precipitation 06/13/2019 06:06 PM 06/13/2019 06:13 PM 0.000 0.000 0.000 0.000 0.000 Not Reported Not Reported
07/12/2019 11:55 AM 80.24 61.70 48.74 87.44 47.30 33.0 Not Reported 3.13 S 5.59 SW 8.50 SW No 0.000 No Precipitation 06/13/2019 06:06 PM 06/13/2019 06:13 PM 0.000 0.000 0.000 0.000 0.000 Not Reported Not Reported
07/12/2019 12:00 PM 79.34 60.98 48.02 87.44 47.30 33.0 Not Reported 4.47 S 3.13 E 10.29 SW No 0.000 No Precipitation 06/13/2019 06:06 PM 06/13/2019 06:13 PM 0.000 0.000 0.000 0.000 0.000 Not Reported Not Reported
07/12/2019 12:05 PM 80.24 60.80 46.76 87.44 47.30 30.0 Not Reported 6.49 SW 6.04 W 10.29 SW No 0.000 No Precipitation 06/13/2019 06:06 PM 06/13/2019 06:13 PM 0.000 0.000 0.000 0.000 0.000 Not Reported Not Reported
07/12/2019 12:10 PM 81.14 61.34 47.30 87.44 47.30 30.0 Not Reported 4.25 S 1.79 SE 9.17 SW No 0.000 No Precipitation 06/13/2019 06:06 PM 06/13/2019 06:13 PM 0.000 0.000 0.000 0.000 0.000 Not Reported Not Reported
07/12/2019 12:15 PM 81.32 61.70 47.66 87.44 47.30 30.0 Not Reported 3.36 S 3.80 SW 9.17 SW No 0.000 No Precipitation 06/13/2019 06:06 PM 06/13/2019 06:13 PM 0.000 0.000 0.000 0.000 0.000 Not Reported Not Reported
07/12/2019 12:20 PM 83.84 62.60 48.02 87.44 47.30 28.0 Not Reported 3.80 SW 2.91 SW 6.93 S No 0.000 No Precipitation 06/13/2019 06:06 PM 06/13/2019 06:13 PM 0.000 0.000 0.000 0.000 0.000 Not Reported Not Reported
07/12/2019 12:25 PM 81.86 61.34 46.40 87.44 47.30 28.0 Not Reported 8.05 S 5.82 SW 6.93 S No 0.000 No Precipitation 06/13/2019 06:06 PM 06/13/2019 06:13 PM 0.000 0.000 0.000 0.000 0.000 Not Reported Not Reported
07/12/2019 12:30 PM 81.50 61.16 46.40 87.44 47.30 29.0 Not Reported 7.16 S 4.70 SW 10.07 SW No 0.000 No Precipitation 06/13/2019 06:06 PM 06/13/2019 06:13 PM 0.000 0.000 0.000 0.000 0.000 Not Reported Not Reported
07/12/2019 12:35 PM 82.22 60.80 44.96 87.44 47.30 27.0 Not Reported 7.38 SW 6.26 S 10.07 SW No 0.000 No Precipitation 06/13/2019 06:06 PM 06/13/2019 06:13 PM 0.000 0.000 0.000 0.000 0.000 Not Reported Not Reported
07/12/2019 12:40 PM 81.50 60.62 44.78 87.44 47.30 27.0 Not Reported 7.61 SW 7.61 W 9.62 SW No 0.000 No Precipitation 06/13/2019 06:06 PM 06/13/2019 06:13 PM 0.000 0.000 0.000 0.000 0.000 Not Reported Not Reported
07/12/2019 12:45 PM 82.76 60.98 44.60 87.44 47.30 26.0 Not Reported 6.71 W 3.80 SW 9.62 SW No 0.000 No Precipitation 06/13/2019 06:06 PM 06/13/2019 06:13 PM 0.000 0.000 0.000 0.000 0.000 Not Reported Not Reported
07/12/2019 12:50 PM 82.40 61.16 45.68 87.44 47.30 27.0 Not Reported 5.37 SW 4.70 SW 9.40 SW No 0.000 No Precipitation 06/13/2019 06:06 PM 06/13/2019 06:13 PM 0.000 0.000 0.000 0.000 0.000 Not Reported Not Reported
07/12/2019 12:55 PM 83.84 61.52 45.14 87.44 47.30 25.0 Not Reported 4.47 SE 8.05 SW 9.40 SW No 0.000 No Precipitation 06/13/2019 06:06 PM 06/13/2019 06:13 PM 0.000 0.000 0.000 0.000 0.000 Not Reported Not Reported
07/12/2019 01:00 PM 83.66 61.16 44.24 87.44 47.30 25.0 Not Reported 2.91 SW 2.46 SW 8.72 SW No 0.000 No Precipitation 06/13/2019 06:06 PM 06/13/2019 06:13 PM 0.000 0.000 0.000 0.000 0.000 Not Reported Not Reported
07/12/2019 01:05 PM 83.84 61.16 44.24 87.44 47.30 24.0 Not Reported 6.26 S 4.47 S 8.72 SW No 0.000 No Precipitation 06/13/2019 06:06 PM 06/13/2019 06:13 PM 0.000 0.000 0.000 0.000 0.000 Not Reported Not Reported
07/12/2019 01:10 PM 85.28 62.24 45.68 87.44 47.30 25.0 Not Reported 4.92 S 7.61 SW 8.72 S No 0.000 No Precipitation 06/13/2019 06:06 PM 06/13/2019 06:13 PM 0.000 0.000 0.000 0.000 0.000 Not Reported Not Reported
07/12/2019 01:15 PM 84.20 60.98 43.16 87.44 47.30 23.0 Not Reported 4.47 S 2.01 SE 8.72 S No 0.000 No Precipitation 06/13/2019 06:06 PM 06/13/2019 06:13 PM 0.000 0.000 0.000 0.000 0.000 Not Reported Not Reported
07/12/2019 01:20 PM 84.56 61.52 44.24 87.44 47.30 24.0 Not Reported 3.13 S 2.24 S 8.28 S No 0.000 No Precipitation 06/13/2019 06:06 PM 06/13/2019 06:13 PM 0.000 0.000 0.000 0.000 0.000 Not Reported Not Reported
07/12/2019 01:25 PM 86.54 62.78 45.86 87.44 47.30 24.0 Not Reported 6.49 SW 3.13 SW 8.28 S No 0.000 No Precipitation 06/13/2019 06:06 PM 06/13/2019 06:13 PM 0.000 0.000 0.000 0.000 0.000 Not Reported Not Reported
07/12/2019 01:30 PM 85.46 62.42 46.04 87.44 47.30 25.0 Not Reported 6.71 W 6.71 W 9.17 SW No 0.000 No Precipitation 06/13/2019 06:06 PM 06/13/2019 06:13 PM 0.000 0.000 0.000 0.000 0.000 Not Reported Not Reported
07/12/2019 01:35 PM 85.28 62.06 45.14 87.44 47.30 24.0 Not Reported 7.83 SW 12.08 W 9.17 SW No 0.000 No Precipitation 06/13/2019 06:06 PM 06/13/2019 06:13 PM 0.000 0.000 0.000 0.000 0.000 Not Reported Not Reported
07/12/2019 01:40 PM 84.56 62.24 46.40 87.44 47.30 26.0 Not Reported 7.38 S 6.71 SW 12.08 W No 0.000 No Precipitation 06/13/2019 06:06 PM 06/13/2019 06:13 PM 0.000 0.000 0.000 0.000 0.000 Not Reported Not Reported
07/12/2019 01:45 PM 86.00 62.06 44.42 87.44 47.30 23.0 Not Reported 5.59 S 1.79 E 12.08 W No 0.000 No Precipitation 06/13/2019 06:06 PM 06/13/2019 06:13 PM 0.000 0.000 0.000 0.000 0.000 Not Reported Not Reported
07/12/2019 01:50 PM 84.92 61.16 42.98 87.44 47.30 23.0 Not Reported 8.72 SW 6.93 SW 11.86 SW No 0.000 No Precipitation 06/13/2019 06:06 PM 06/13/2019 06:13 PM 0.000 0.000 0.000 0.000 0.000 Not Reported Not Reported
07/12/2019 01:55 PM 87.26 63.14 45.86 87.44 47.30 23.0 Not Reported 5.37 S 8.72 W 11.86 SW No 0.000 No Precipitation 06/13/2019 06:06 PM 06/13/2019 06:13 PM 0.000 0.000 0.000 0.000 0.000 Not Reported Not Reported
07/12/2019 02:00 PM 86.18 62.78 46.04 87.44 47.30 24.0 Not Reported 6.93 SW 6.71 SW 11.86 SW No 0.000 No Precipitation 06/13/2019 06:06 PM 06/13/2019 06:13 PM 0.000 0.000 0.000 0.000 0.000 Not Reported Not Reported
07/12/2019 02:05 PM 86.00 62.78 46.22 87.44 47.30 25.0 Not Reported 8.72 W 7.83 W 11.86 SW No 0.000 No Precipitation 06/13/2019 06:06 PM 06/13/2019 06:13 PM 0.000 0.000 0.000 0.000 0.000 Not Reported Not Reported
07/12/2019 02:10 PM 87.62 63.14 45.68 87.62 47.30 23.0 Not Reported 4.92 SW 6.93 W 13.20 W No 0.000 No Precipitation 06/13/2019 06:06 PM 06/13/2019 06:13 PM 0.000 0.000 0.000 0.000 0.000 Not Reported Not Reported
07/12/2019 02:15 PM 87.26 62.42 44.06 87.80 47.30 22.0 Not Reported 7.38 SW 6.49 S 13.20 W No 0.000 No Precipitation 06/13/2019 06:06 PM 06/13/2019 06:13 PM 0.000 0.000 0.000 0.000 0.000 Not Reported Not Reported
07/12/2019 02:20 PM 87.44 62.60 44.60 87.80 47.30 22.0 Not Reported 6.26 SW 7.83 SW 10.07 S No 0.000 No Precipitation 06/13/2019 06:06 PM 06/13/2019 06:13 PM 0.000 0.000 0.000 0.000 0.000 Not Reported Not Reported
07/12/2019 02:25 PM 89.96 64.40 46.94 89.96 47.30 22.0 Not Reported 5.82 S 4.70 S 10.07 S No 0.000 No Precipitation 06/13/2019 06:06 PM 06/13/2019 06:13 PM 0.000 0.000 0.000 0.000 0.000 Not Reported Not Reported
07/12/2019 02:30 PM 87.08 62.78 45.14 89.96 47.30 23.0 Not Reported 3.36 S 2.46 E 9.84 S No 0.000 No Precipitation 06/13/2019 06:06 PM 06/13/2019 06:13 PM 0.000 0.000 0.000 0.000 0.000 Not Reported Not Reported
07/12/2019 02:35 PM 87.62 63.32 46.58 89.96 47.30 24.0 Not Reported 3.13 S 7.16 SW 9.84 S No 0.000 No Precipitation 06/13/2019 06:06 PM 06/13/2019 06:13 PM 0.000 0.000 0.000 0.000 0.000 Not Reported Not Reported
07/12/2019 02:40 PM 88.88 63.50 45.68 89.96 47.30 22.0 Not Reported 9.17 W 9.84 W 12.53 SW No 0.000 No Precipitation 06/13/2019 06:06 PM 06/13/2019 06:13 PM 0.000 0.000 0.000 0.000 0.000 Not Reported Not Reported
07/12/2019 02:45 PM 89.06 63.32 44.96 89.96 47.30 21.0 Not Reported 3.58 S 6.49 S 12.53 SW No 0.000 No Precipitation 06/13/2019 06:06 PM 06/13/2019 06:13 PM 0.000 0.000 0.000 0.000 0.000 Not Reported Not Reported
07/12/2019 02:50 PM 88.70 62.60 43.16 89.96 47.30 20.0 Not Reported 6.26 S 8.95 S 10.74 SW No 0.000 No Precipitation 06/13/2019 06:06 PM 06/13/2019 06:13 PM 0.000 0.000 0.000 0.000 0.000 Not Reported Not Reported
07/12/2019 02:55 PM 89.06 62.42 42.26 89.96 47.30 19.0 Not Reported 8.95 SW 10.51 S 10.74 SW No 0.000 No Precipitation 06/13/2019 06:06 PM 06/13/2019 06:13 PM 0.000 0.000 0.000 0.000 0.000 Not Reported Not Reported
07/12/2019 03:00 PM 89.06 62.96 44.06 89.96 47.30 21.0 Not Reported 5.82 S 6.49 S 13.87 S No 0.000 No Precipitation 06/13/2019 06:06 PM 06/13/2019 06:13 PM 0.000 0.000 0.000 0.000 0.000 Not Reported Not Reported
07/12/2019 03:05 PM 86.90 61.34 41.36 89.96 47.30 20.0 Not Reported 3.80 SW 4.03 SE 13.87 S No 0.000 No Precipitation 06/13/2019 06:06 PM 06/13/2019 06:13 PM 0.000 0.000 0.000 0.000 0.000 Not Reported Not Reported
07/12/2019 03:10 PM 89.60 61.88 40.10 90.14 47.30 17.0 Not Reported 8.95 S 10.07 S 10.07 S No 0.000 No Precipitation 06/13/2019 06:06 PM 06/13/2019 06:13 PM 0.000 0.000 0.000 0.000 0.000 Not Reported Not Reported
07/12/2019 03:15 PM 88.34 61.16 39.56 90.14 47.30 17.0 Not Reported 11.18 S 4.92 SE 10.07 S No 0.000 No Precipitation 06/13/2019 06:06 PM 06/13/2019 06:13 PM 0.000 0.000 0.000 0.000 0.000 Not Reported Not Reported
07/12/2019 03:20 PM 89.06 62.60 43.16 90.14 47.30 20.0 Not Reported 7.83 SW 4.92 SW 13.65 S No 0.000 No Precipitation 06/13/2019 06:06 PM 06/13/2019 06:13 PM 0.000 0.000 0.000 0.000 0.000 Not Reported Not Reported
07/12/2019 03:25 PM 88.88 61.70 40.10 90.14 47.30 18.0 Not Reported 7.61 SW 10.07 S 13.65 S No 0.000 No Precipitation 06/13/2019 06:06 PM 06/13/2019 06:13 PM 0.000 0.000 0.000 0.000 0.000 Not Reported Not Reported
07/12/2019 03:30 PM 89.60 62.42 41.90 90.14 47.30 18.0 Not Reported 10.07 SW 8.95 SW 13.65 S No 0.000 No Precipitation 06/13/2019 06:06 PM 06/13/2019 06:13 PM 0.000 0.000 0.000 0.000 0.000 Not Reported Not Reported
07/12/2019 03:35 PM 88.16 61.70 41.00 90.14 47.30 19.0 Not Reported 8.50 SW 3.13 S 13.65 S No 0.000 No Precipitation 06/13/2019 06:06 PM 06/13/2019 06:13 PM 0.000 0.000 0.000 0.000 0.000 Not Reported Not Reported
07/12/2019 03:40 PM 88.52 61.70 40.64 90.14 47.30 18.0 Not Reported 9.62 SW 7.61 S 11.86 W No 0.000 No Precipitation 06/13/2019 06:06 PM 06/13/2019 06:13 PM 0.000 0.000 0.000 0.000 0.000 Not Reported Not Reported
07/12/2019 03:45 PM 88.52 62.24 42.62 90.14 47.30 20.0 Not Reported 6.93 SW 6.93 SW 11.86 W No 0.000 No Precipitation 06/13/2019 06:06 PM 06/13/2019 06:13 PM 0.000 0.000 0.000 0.000 0.000 Not Reported Not Reported
07/12/2019 03:50 PM 87.98 61.70 41.18 90.14 47.30 19.0 Not Reported 9.84 SW 11.63 SW 13.42 SW No 0.000 No Precipitation 06/13/2019 06:06 PM 06/13/2019 06:13 PM 0.000 0.000 0.000 0.000 0.000 Not Reported Not Reported
07/12/2019 03:55 PM 87.80 61.34 40.46 90.14 47.30 19.0 Not Reported 9.40 W 7.61 SW 13.42 SW No 0.000 No Precipitation 06/13/2019 06:06 PM 06/13/2019 06:13 PM 0.000 0.000 0.000 0.000 0.000 Not Reported Not Reported
07/12/2019 04:00 PM 88.70 61.52 40.28 90.14 47.30 18.0 Not Reported 6.49 S 6.49 SE 14.32 W No 0.000 No Precipitation 06/13/2019 06:06 PM 06/13/2019 06:13 PM 0.000 0.000 0.000 0.000 0.000 Not Reported Not Reported
07/12/2019 04:05 PM 87.98 61.52 41.00 90.14 47.30 19.0 Not Reported 12.53 SW 10.29 S 14.32 W No 0.000 No Precipitation 06/13/2019 06:06 PM 06/13/2019 06:13 PM 0.000 0.000 0.000 0.000 0.000 Not Reported Not Reported
07/12/2019 04:10 PM 87.44 61.16 40.46 90.14 47.30 19.0 Not Reported 9.17 SW 12.75 SW 16.33 SW No 0.000 No Precipitation 06/13/2019 06:06 PM 06/13/2019 06:13 PM 0.000 0.000 0.000 0.000 0.000 Not Reported Not Reported
07/12/2019 04:15 PM 90.14 62.42 41.36 90.14 47.30 18.0 Not Reported 10.07 S 4.47 SW 16.33 SW No 0.000 No Precipitation 06/13/2019 06:06 PM 06/13/2019 06:13 PM 0.000 0.000 0.000 0.000 0.000 Not Reported Not Reported
07/12/2019 04:20 PM 89.42 61.88 40.64 90.32 47.30 18.0 Not Reported 7.83 SW 11.18 SW 12.30 S No 0.000 No Precipitation 06/13/2019 06:06 PM 06/13/2019 06:13 PM 0.000 0.000 0.000 0.000 0.000 Not Reported Not Reported
07/12/2019 04:25 PM 87.98 61.52 40.64 90.32 47.30 19.0 Not Reported 9.84 SW 8.95 SW 12.30 S No 0.000 No Precipitation 06/13/2019 06:06 PM 06/13/2019 06:13 PM 0.000 0.000 0.000 0.000 0.000 Not Reported Not Reported
07/12/2019 04:30 PM 89.78 62.78 42.62 90.32 47.30 19.0 Not Reported 4.47 SW 4.03 SW 12.08 SW No 0.000 No Precipitation 06/13/2019 06:06 PM 06/13/2019 06:13 PM 0.000 0.000 0.000 0.000 0.000 Not Reported Not Reported
07/12/2019 04:35 PM 89.78 62.60 42.26 90.32 47.30 19.0 Not Reported 8.05 W 7.61 W 12.08 SW No 0.000 No Precipitation 06/13/2019 06:06 PM 06/13/2019 06:13 PM 0.000 0.000 0.000 0.000 0.000 Not Reported Not Reported
07/12/2019 04:40 PM 87.62 61.34 40.82 90.32 47.30 19.0 Not Reported 9.84 SW 10.74 W 15.66 SW No 0.000 No Precipitation 06/13/2019 06:06 PM 06/13/2019 06:13 PM 0.000 0.000 0.000 0.000 0.000 Not Reported Not Reported
07/12/2019 04:45 PM 89.06 61.52 39.56 90.32 47.30 17.0 Not Reported 11.18 SW 8.28 SW 15.66 SW No 0.000 No Precipitation 06/13/2019 06:06 PM 06/13/2019 06:13 PM 0.000 0.000 0.000 0.000 0.000 Not Reported Not Reported
07/12/2019 04:50 PM 88.70 61.52 39.74 90.32 47.30 18.0 Not Reported 6.49 SW 5.82 SW 14.54 W No 0.000 No Precipitation 06/13/2019 06:06 PM 06/13/2019 06:13 PM 0.000 0.000 0.000 0.000 0.000 Not Reported Not Reported
07/12/2019 04:55 PM 88.16 61.16 39.38 90.32 47.30 18.0 Not Reported 8.72 W 10.74 SW 14.54 W No 0.000 No Precipitation 06/13/2019 06:06 PM 06/13/2019 06:13 PM 0.000 0.000 0.000 0.000 0.000 Not Reported Not Reported
07/12/2019 05:00 PM 88.34 60.98 38.30 90.32 47.30 17.0 Not Reported 9.40 SW 9.40 SW 13.87 SW No 0.000 No Precipitation 06/13/2019 06:06 PM 06/13/2019 06:13 PM 0.000 0.000 0.000 0.000 0.000 Not Reported Not Reported
07/12/2019 05:05 PM 89.24 61.34 38.66 90.32 47.30 16.0 Not Reported 9.84 SW 12.08 W 13.87 SW No 0.000 No Precipitation 06/13/2019 06:06 PM 06/13/2019 06:13 PM 0.000 0.000 0.000 0.000 0.000 Not Reported Not Reported
07/12/2019 05:10 PM 88.52 60.98 38.30 90.32 47.30 17.0 Not Reported 12.30 SW 9.84 W 15.66 SW No 0.000 No Precipitation 06/13/2019 06:06 PM 06/13/2019 06:13 PM 0.000 0.000 0.000 0.000 0.000 Not Reported Not Reported
07/12/2019 05:15 PM 88.88 60.26 35.42 90.32 47.30 15.0 Not Reported 6.71 W 7.16 SW 15.66 SW No 0.000 No Precipitation 06/13/2019 06:06 PM 06/13/2019 06:13 PM 0.000 0.000 0.000 0.000 0.000 Not Reported Not Reported
07/12/2019 05:20 PM 88.70 60.44 36.50 90.32 47.30 15.0 Not Reported 13.65 SW 12.30 S 17.22 SW No 0.000 No Precipitation 06/13/2019 06:06 PM 06/13/2019 06:13 PM 0.000 0.000 0.000 0.000 0.000 Not Reported Not Reported
07/12/2019 05:25 PM 88.88 59.54 32.90 90.32 47.30 13.0 Not Reported 10.07 W 10.96 SW 17.22 SW No 0.000 No Precipitation 06/13/2019 06:06 PM 06/13/2019 06:13 PM 0.000 0.000 0.000 0.000 0.000 Not Reported Not Reported
07/12/2019 05:30 PM 87.44 59.00 32.90 90.32 47.30 14.0 Not Reported 12.75 SW 14.32 SW 16.11 SW No 0.000 No Precipitation 06/13/2019 06:06 PM 06/13/2019 06:13 PM 0.000 0.000 0.000 0.000 0.000 Not Reported Not Reported
07/12/2019 05:35 PM 87.98 59.54 33.98 90.32 47.30 14.0 Not Reported 10.29 SW 11.41 W 16.11 SW No 0.000 No Precipitation 06/13/2019 06:06 PM 06/13/2019 06:13 PM 0.000 0.000 0.000 0.000 0.000 Not Reported Not Reported
07/12/2019 05:40 PM 87.80 59.36 33.62 90.32 47.30 14.0 Not Reported 13.87 SW 15.43 SW 16.33 SW No 0.000 No Precipitation 06/13/2019 06:06 PM 06/13/2019 06:13 PM 0.000 0.000 0.000 0.000 0.000 Not Reported Not Reported
07/12/2019 05:45 PM 87.98 58.64 30.74 90.32 47.30 12.0 Not Reported 10.51 SW 13.20 SW 16.33 SW No 0.000 No Precipitation 06/13/2019 06:06 PM 06/13/2019 06:13 PM 0.000 0.000 0.000 0.000 0.000 Not Reported Not Reported
07/12/2019 05:50 PM 87.98 59.36 33.26 90.32 47.30 14.0 Not Reported 10.96 SW 12.08 SW 13.42 SW No 0.000 No Precipitation 06/13/2019 06:06 PM 06/13/2019 06:13 PM 0.000 0.000 0.000 0.000 0.000 Not Reported Not Reported
07/12/2019 05:55 PM 88.34 59.36 33.08 90.32 47.30 14.0 Not Reported 12.53 SW 9.40 W 13.42 SW No 0.000 No Precipitation 06/13/2019 06:06 PM 06/13/2019 06:13 PM 0.000 0.000 0.000 0.000 0.000 Not Reported Not Reported
07/12/2019 06:00 PM 88.34 59.36 32.54 90.32 47.30 13.0 Not Reported 10.51 SW 17.22 SW 17.22 SW No 0.000 No Precipitation 06/13/2019 06:06 PM 06/13/2019 06:13 PM 0.000 0.000 0.000 0.000 0.000 Not Reported Not Reported
07/12/2019 06:05 PM 88.16 59.36 33.08 90.32 47.30 14.0 Not Reported 8.50 SW 12.75 S 17.22 SW No 0.000 No Precipitation 06/13/2019 06:06 PM 06/13/2019 06:13 PM 0.000 0.000 0.000 0.000 0.000 Not Reported Not Reported
07/12/2019 06:10 PM 87.80 59.18 33.08 90.32 47.30 14.0 Not Reported 13.65 W 12.30 SW 16.55 SW No 0.000 No Precipitation 06/13/2019 06:06 PM 06/13/2019 06:13 PM 0.000 0.000 0.000 0.000 0.000 Not Reported Not Reported
07/12/2019 06:15 PM 88.88 60.08 34.52 90.32 47.30 14.0 Not Reported 6.04 SW 13.65 SW 16.55 SW No 0.000 No Precipitation 06/13/2019 06:06 PM 06/13/2019 06:13 PM 0.000 0.000 0.000 0.000 0.000 Not Reported Not Reported
07/12/2019 06:20 PM 88.16 59.72 34.34 90.32 47.30 14.0 Not Reported 10.51 SW 9.84 SW 15.43 SW No 0.000 No Precipitation 06/13/2019 06:06 PM 06/13/2019 06:13 PM 0.000 0.000 0.000 0.000 0.000 Not Reported Not Reported
07/12/2019 06:25 PM 87.80 59.72 35.06 90.32 47.30 15.0 Not Reported 11.63 SW 12.08 SW 15.43 SW No 0.000 No Precipitation 06/13/2019 06:06 PM 06/13/2019 06:13 PM 0.000 0.000 0.000 0.000 0.000 Not Reported Not Reported
07/12/2019 06:30 PM 88.34 59.54 33.80 90.32 47.30 14.0 Not Reported 8.95 SW 8.05 W 17.22 W No 0.000 No Precipitation 06/13/2019 06:06 PM 06/13/2019 06:13 PM 0.000 0.000 0.000 0.000 0.000 Not Reported Not Reported
07/12/2019 06:35 PM 88.70 60.08 34.88 90.32 47.30 14.0 Not Reported 10.29 SW 12.75 S 17.22 W No 0.000 No Precipitation 06/13/2019 06:06 PM 06/13/2019 06:13 PM 0.000 0.000 0.000 0.000 0.000 Not Reported Not Reported
07/12/2019 06:40 PM 87.44 59.54 35.24 90.32 47.30 15.0 Not Reported 9.84 SW 6.93 W 13.65 S No 0.000 No Precipitation 06/13/2019 06:06 PM 06/13/2019 06:13 PM 0.000 0.000 0.000 0.000 0.000 Not Reported Not Reported
07/12/2019 06:45 PM 87.62 59.90 35.60 90.32 47.30 15.0 Not Reported 8.72 SW 9.40 S 13.65 S No 0.000 No Precipitation 06/13/2019 06:06 PM 06/13/2019 06:13 PM 0.000 0.000 0.000 0.000 0.000 Not Reported Not Reported
07/12/2019 06:50 PM 87.80 60.26 36.86 90.32 47.30 16.0 Not Reported 9.62 SW 11.18 W 11.18 W No 0.000 No Precipitation 06/13/2019 06:06 PM 06/13/2019 06:13 PM 0.000 0.000 0.000 0.000 0.000 Not Reported Not Reported
07/12/2019 06:55 PM 87.98 60.08 36.32 90.32 47.30 16.0 Not Reported 9.62 SW 3.58 SW 11.18 W No 0.000 No Precipitation 06/13/2019 06:06 PM 06/13/2019 06:13 PM 0.000 0.000 0.000 0.000 0.000 Not Reported Not Reported
07/12/2019 07:00 PM 87.98 60.44 37.40 90.32 47.30 16.0 Not Reported 8.05 SW 11.63 SW 14.32 SW No 0.000 No Precipitation 06/13/2019 06:06 PM 06/13/2019 06:13 PM 0.000 0.000 0.000 0.000 0.000 Not Reported Not Reported
07/12/2019 07:05 PM 88.70 60.80 37.40 90.32 47.30 16.0 Not Reported 7.61 SW 5.59 W 14.32 SW No 0.000 No Precipitation 06/13/2019 06:06 PM 06/13/2019 06:13 PM 0.000 0.000 0.000 0.000 0.000 Not Reported Not Reported
07/12/2019 07:10 PM 87.26 59.18 33.80 90.32 47.30 14.0 Not Reported 11.86 SW 9.84 SW 15.21 W No 0.000 No Precipitation 06/13/2019 06:06 PM 06/13/2019 06:13 PM 0.000 0.000 0.000 0.000 0.000 Not Reported Not Reported
07/12/2019 07:15 PM 87.62 58.46 31.10 90.32 47.30 13.0 Not Reported 9.84 SW 8.28 SW 15.21 W No 0.000 No Precipitation 06/13/2019 06:06 PM 06/13/2019 06:13 PM 0.000 0.000 0.000 0.000 0.000 Not Reported Not Reported
07/12/2019 07:20 PM 87.44 59.00 32.72 90.32 47.30 14.0 Not Reported 8.05 SW 9.17 SW 12.08 SW No 0.000 No Precipitation 06/13/2019 06:06 PM 06/13/2019 06:13 PM 0.000 0.000 0.000 0.000 0.000 Not Reported Not Reported
07/12/2019 07:25 PM 87.26 59.18 33.44 90.32 47.30 14.0 Not Reported 9.17 S 11.18 SW 12.08 SW No 0.000 No Precipitation 06/13/2019 06:06 PM 06/13/2019 06:13 PM 0.000 0.000 0.000 0.000 0.000 Not Reported Not Reported
07/12/2019 07:30 PM 86.90 59.54 35.42 90.32 47.30 16.0 Not Reported 9.40 SW 9.84 S 11.18 SW No 0.000 No Precipitation 06/13/2019 06:06 PM 06/13/2019 06:13 PM 0.000 0.000 0.000 0.000 0.000 Not Reported Not Reported
07/12/2019 07:35 PM 87.08 59.54 35.24 90.32 47.30 15.0 Not Reported 9.17 SW 8.50 SW 11.18 SW No 0.000 No Precipitation 06/13/2019 06:06 PM 06/13/2019 06:13 PM 0.000 0.000 0.000 0.000 0.000 Not Reported Not Reported
07/12/2019 07:40 PM 86.36 58.82 33.80 90.32 47.30 15.0 Not Reported 10.74 SW 9.40 SW 12.53 W No 0.000 No Precipitation 06/13/2019 06:06 PM 06/13/2019 06:13 PM 0.000 0.000 0.000 0.000 0.000 Not Reported Not Reported
07/12/2019 07:45 PM 86.36 59.18 34.88 90.32 47.30 15.0 Not Reported 10.29 SW 10.29 W 12.53 W No 0.000 No Precipitation 06/13/2019 06:06 PM 06/13/2019 06:13 PM 0.000 0.000 0.000 0.000 0.000 Not Reported Not Reported
07/12/2019 07:50 PM 86.00 58.82 34.16 90.32 47.30 15.0 Not Reported 11.18 SW 10.07 SW 12.30 SW No 0.000 No Precipitation 06/13/2019 06:06 PM 06/13/2019 06:13 PM 0.000 0.000 0.000 0.000 0.000 Not Reported Not Reported
07/12/2019 07:55 PM 85.82 58.46 33.08 90.32 47.30 15.0 Not Reported 10.07 SW 9.17 W 12.30 SW No 0.000 No Precipitation 06/13/2019 06:06 PM 06/13/2019 06:13 PM 0.000 0.000 0.000 0.000 0.000 Not Reported Not Reported
07/12/2019 08:00 PM 86.00 59.00 34.88 90.32 47.30 16.0 Not Reported 7.61 SW 8.05 SW 12.08 SW No 0.000 No Precipitation 06/13/2019 06:06 PM 06/13/2019 06:13 PM 0.000 0.000 0.000 0.000 0.000 Not Reported Not Reported
07/12/2019 08:05 PM 85.64 59.36 36.68 90.32 47.30 17.0 Not Reported 11.18 SW 8.05 SW 12.08 SW No 0.000 No Precipitation 06/13/2019 06:06 PM 06/13/2019 06:13 PM 0.000 0.000 0.000 0.000 0.000 Not Reported Not Reported
07/12/2019 08:10 PM 85.46 59.00 35.42 90.32 47.30 16.0 Not Reported 10.51 W 10.07 SW 13.42 W No 0.000 No Precipitation 06/13/2019 06:06 PM 06/13/2019 06:13 PM 0.000 0.000 0.000 0.000 0.000 Not Reported Not Reported
07/12/2019 08:15 PM 85.28 59.18 36.32 90.32 47.30 17.0 Not Reported 8.50 SW 10.29 SW 13.42 W No 0.000 No Precipitation 06/13/2019 06:06 PM 06/13/2019 06:13 PM 0.000 0.000 0.000 0.000 0.000 Not Reported Not Reported
07/12/2019 08:20 PM 85.10 59.18 36.86 90.32 47.30 18.0 Not Reported 9.62 SW 10.74 SW 12.08 W No 0.000 No Precipitation 06/13/2019 06:06 PM 06/13/2019 06:13 PM 0.000 0.000 0.000 0.000 0.000 Not Reported Not Reported
07/12/2019 08:25 PM 84.56 58.64 35.96 90.32 47.30 17.0 Not Reported 9.84 SW 9.84 SW 12.08 W No 0.000 No Precipitation 06/13/2019 06:06 PM 06/13/2019 06:13 PM 0.000 0.000 0.000 0.000 0.000 Not Reported Not Reported
07/12/2019 08:30 PM 84.20 58.64 35.78 90.32 47.30 17.0 Not Reported 10.51 SW 10.96 W 12.75 SW No 0.000 No Precipitation 06/13/2019 06:06 PM 06/13/2019 06:13 PM 0.000 0.000 0.000 0.000 0.000 Not Reported Not Reported
07/12/2019 08:35 PM 83.84 58.28 35.06 90.32 47.30 17.0 Not Reported 9.84 SW 9.40 SW 12.75 SW No 0.000 No Precipitation 06/13/2019 06:06 PM 06/13/2019 06:13 PM 0.000 0.000 0.000 0.000 0.000 Not Reported Not Reported
07/12/2019 08:40 PM 83.48 58.10 35.06 90.32 47.30 17.0 Not Reported 7.61 SW 8.28 SW 12.30 SW No 0.000 No Precipitation 06/13/2019 06:06 PM 06/13/2019 06:13 PM 0.000 0.000 0.000 0.000 0.000 Not Reported Not Reported
07/12/2019 08:45 PM 83.30 58.28 35.96 90.32 47.30 18.0 Not Reported 6.04 SW 5.37 SW 12.30 SW No 0.000 No Precipitation 06/13/2019 06:06 PM 06/13/2019 06:13 PM 0.000 0.000 0.000 0.000 0.000 Not Reported Not Reported
07/12/2019 08:50 PM 82.76 57.92 35.78 90.32 47.30 18.0 Not Reported 7.61 SW 9.17 SW 9.40 SW No 0.000 No Precipitation 06/13/2019 06:06 PM 06/13/2019 06:13 PM 0.000 0.000 0.000 0.000 0.000 Not Reported Not Reported
07/12/2019 08:55 PM 82.22 58.10 36.86 90.32 47.30 19.0 Not Reported 6.04 SW 7.83 SW 9.40 SW No 0.000 No Precipitation 06/13/2019 06:06 PM 06/13/2019 06:13 PM 0.000 0.000 0.000 0.000 0.000 Not Reported Not Reported
07/12/2019 09:00 PM 82.04 58.46 38.48 90.32 47.30 21.0 Not Reported 5.59 SW 6.26 W 7.83 W No 0.000 No Precipitation 06/13/2019 06:06 PM 06/13/2019 06:13 PM 0.000 0.000 0.000 0.000 0.000 Not Reported Not Reported
07/12/2019 09:05 PM 81.86 58.82 39.74 90.32 47.30 22.0 Not Reported 5.14 W 5.14 SW 7.83 W No 0.000 No Precipitation 06/13/2019 06:06 PM 06/13/2019 06:13 PM 0.000 0.000 0.000 0.000 0.000 Not Reported Not Reported
07/12/2019 09:10 PM 80.96 59.00 41.18 90.32 47.30 24.0 Not Reported 7.16 W 7.83 SW 8.72 W No 0.000 No Precipitation 06/13/2019 06:06 PM 06/13/2019 06:13 PM 0.000 0.000 0.000 0.000 0.000 Not Reported Not Reported
07/12/2019 09:15 PM 80.24 59.00 41.90 90.32 47.30 25.0 Not Reported 5.82 SW 8.28 SW 8.72 W No 0.000 No Precipitation 06/13/2019 06:06 PM 06/13/2019 06:13 PM 0.000 0.000 0.000 0.000 0.000 Not Reported Not Reported
07/12/2019 09:20 PM 79.34 58.82 42.62 90.32 47.30 27.0 Not Reported 5.14 W 4.92 W 8.28 SW No 0.000 No Precipitation 06/13/2019 06:06 PM 06/13/2019 06:13 PM 0.000 0.000 0.000 0.000 0.000 Not Reported Not Reported
07/12/2019 09:25 PM 78.62 59.00 43.88 90.32 47.30 28.0 Not Reported 4.47 W 4.25 W 8.28 SW No 0.000 No Precipitation 06/13/2019 06:06 PM 06/13/2019 06:13 PM 0.000 0.000 0.000 0.000 0.000 Not Reported Not Reported
07/12/2019 09:30 PM 77.90 59.18 44.78 90.32 47.30 30.0 Not Reported 2.46 W 2.01 W 5.59 W No 0.000 No Precipitation 06/13/2019 06:06 PM 06/13/2019 06:13 PM 0.000 0.000 0.000 0.000 0.000 Not Reported Not Reported
07/12/2019 09:35 PM 77.54 59.90 46.94 90.32 47.30 33.0 Not Reported 2.68 NW 3.80 W 5.59 W No 0.000 No Precipitation 06/13/2019 06:06 PM 06/13/2019 06:13 PM 0.000 0.000 0.000 0.000 0.000 Not Reported Not Reported
07/12/2019 09:40 PM 77.00 59.90 47.48 90.32 47.30 35.0 Not Reported 4.47 W 5.14 W 5.14 W No 0.000 No Precipitation 06/13/2019 06:06 PM 06/13/2019 06:13 PM 0.000 0.000 0.000 0.000 0.000 Not Reported Not Reported
07/12/2019 09:45 PM 76.46 60.08 48.20 90.32 47.30 36.0 Not Reported 3.80 W 3.58 W 5.14 W No 0.000 No Precipitation 06/13/2019 06:06 PM 06/13/2019 06:13 PM 0.000 0.000 0.000 0.000 0.000 Not Reported Not Reported
07/12/2019 09:50 PM 75.74 59.90 48.74 90.32 47.30 38.0 Not Reported 2.91 W 2.46 W 5.59 NW No 0.000 No Precipitation 06/13/2019 06:06 PM 06/13/2019 06:13 PM 0.000 0.000 0.000 0.000 0.000 Not Reported Not Reported
07/12/2019 09:55 PM 75.02 59.72 48.74 90.32 47.30 39.0 Not Reported 2.68 W 2.24 W 5.59 NW No 0.000 No Precipitation 06/13/2019 06:06 PM 06/13/2019 06:13 PM 0.000 0.000 0.000 0.000 0.000 Not Reported Not Reported
07/12/2019 10:00 PM 74.84 59.72 48.92 90.32 47.30 39.0 Not Reported 0.67 W 0.89 W 3.80 NW No 0.000 No Precipitation 06/13/2019 06:06 PM 06/13/2019 06:13 PM 0.000 0.000 0.000 0.000 0.000 Not Reported Not Reported
07/12/2019 10:05 PM 74.48 59.72 49.10 90.32 47.30 40.0 Not Reported 1.12 W 0.89 W 3.80 NW No 0.000 No Precipitation 06/13/2019 06:06 PM 06/13/2019 06:13 PM 0.000 0.000 0.000 0.000 0.000 Not Reported Not Reported
07/12/2019 10:10 PM 73.94 59.36 48.92 90.32 47.30 41.0 Not Reported 1.57 SW 2.01 W 2.01 W No 0.000 No Precipitation 06/13/2019 06:06 PM 06/13/2019 06:13 PM 0.000 0.000 0.000 0.000 0.000 Not Reported Not Reported
07/12/2019 10:15 PM 73.94 59.36 48.74 90.32 47.30 41.0 Not Reported 3.13 W 2.91 W 2.01 W No 0.000 No Precipitation 06/13/2019 06:06 PM 06/13/2019 06:13 PM 0.000 0.000 0.000 0.000 0.000 Not Reported Not Reported
07/12/2019 10:20 PM 73.40 59.18 48.74 90.32 47.30 41.0 Not Reported 3.58 NW 1.57 NW 6.26 NW No 0.000 No Precipitation 06/13/2019 06:06 PM 06/13/2019 06:13 PM 0.000 0.000 0.000 0.000 0.000 Not Reported Not Reported
07/12/2019 10:25 PM 72.86 59.00 48.92 90.32 47.30 42.0 Not Reported 3.80 W 3.58 W 6.26 NW No 0.000 No Precipitation 06/13/2019 06:06 PM 06/13/2019 06:13 PM 0.000 0.000 0.000 0.000 0.000 Not Reported Not Reported
07/12/2019 10:30 PM 72.32 58.82 49.10 90.32 47.30 43.0 Not Reported 2.68 W 2.46 W 4.25 W No 0.000 No Precipitation 06/13/2019 06:06 PM 06/13/2019 06:13 PM 0.000 0.000 0.000 0.000 0.000 Not Reported Not Reported
07/12/2019 10:35 PM 71.96 58.64 49.10 90.32 47.30 44.0 Not Reported 3.13 W 2.68 W 4.25 W No 0.000 No Precipitation 06/13/2019 06:06 PM 06/13/2019 06:13 PM 0.000 0.000 0.000 0.000 0.000 Not Reported Not Reported
07/12/2019 10:40 PM 71.96 58.46 48.56 90.32 47.30 43.0 Not Reported 0.22 N 0.00 N 3.80 NW No 0.000 No Precipitation 06/13/2019 06:06 PM 06/13/2019 06:13 PM 0.000 0.000 0.000 0.000 0.000 Not Reported Not Reported
07/12/2019 10:45 PM 71.78 58.28 48.38 90.32 47.30 43.0 Not Reported 1.57 N 1.34 N 3.80 NW No 0.000 No Precipitation 06/13/2019 06:06 PM 06/13/2019 06:13 PM 0.000 0.000 0.000 0.000 0.000 Not Reported Not Reported
07/12/2019 10:50 PM 71.24 58.28 48.56 90.32 47.30 44.0 Not Reported 0.89 N 1.79 NW 2.46 W No 0.000 No Precipitation 06/13/2019 06:06 PM 06/13/2019 06:13 PM 0.000 0.000 0.000 0.000 0.000 Not Reported Not Reported
07/12/2019 10:55 PM 71.96 58.64 49.10 90.32 47.30 44.0 Not Reported 1.12 NW 1.12 N 2.46 W No 0.000 No Precipitation 06/13/2019 06:06 PM 06/13/2019 06:13 PM 0.000 0.000 0.000 0.000 0.000 Not Reported Not Reported
07/12/2019 11:00 PM 71.78 58.64 49.10 90.32 47.30 44.0 Not Reported 1.57 W 1.79 SW 2.68 NE No 0.000 No Precipitation 06/13/2019 06:06 PM 06/13/2019 06:13 PM 0.000 0.000 0.000 0.000 0.000 Not Reported Not Reported
07/12/2019 11:05 PM 70.70 58.10 48.92 90.32 47.30 46.0 Not Reported 2.24 SW 2.24 SW 2.68 NE No 0.000 No Precipitation 06/13/2019 06:06 PM 06/13/2019 06:13 PM 0.000 0.000 0.000 0.000 0.000 Not Reported Not Reported
07/12/2019 11:10 PM 68.90 57.20 48.20 90.32 47.30 47.0 Not Reported 1.34 S 1.34 S 2.46 SW No 0.000 No Precipitation 06/13/2019 06:06 PM 06/13/2019 06:13 PM 0.000 0.000 0.000 0.000 0.000 Not Reported Not Reported
07/12/2019 11:15 PM 68.00 56.66 47.84 90.32 47.30 48.0 Not Reported 0.89 S 2.24 SW 2.46 SW No 0.000 No Precipitation 06/13/2019 06:06 PM 06/13/2019 06:13 PM 0.000 0.000 0.000 0.000 0.000 Not Reported Not Reported
07/12/2019 11:20 PM 68.00 56.66 48.02 90.32 47.30 48.0 Not Reported 2.68 SW 1.34 SW 4.92 SW No 0.000 No Precipitation 06/13/2019 06:06 PM 06/13/2019 06:13 PM 0.000 0.000 0.000 0.000 0.000 Not Reported Not Reported
07/12/2019 11:25 PM 71.06 58.28 48.92 90.32 47.30 45.0 Not Reported 2.91 NW 4.03 W 4.92 SW No 0.000 No Precipitation 06/13/2019 06:06 PM 06/13/2019 06:13 PM 0.000 0.000 0.000 0.000 0.000 Not Reported Not Reported
07/12/2019 11:30 PM 69.98 57.92 48.92 90.32 47.30 47.0 Not Reported 2.68 W 3.13 W 6.04 W No 0.000 No Precipitation 06/13/2019 06:06 PM 06/13/2019 06:13 PM 0.000 0.000 0.000 0.000 0.000 Not Reported Not Reported
07/12/2019 11:35 PM 69.62 57.56 48.74 90.32 47.30 47.0 Not Reported 1.79 NW 0.00 NW 6.04 W No 0.000 No Precipitation 06/13/2019 06:06 PM 06/13/2019 06:13 PM 0.000 0.000 0.000 0.000 0.000 Not Reported Not Reported
07/12/2019 11:40 PM 69.62 57.56 48.74 90.32 47.30 47.0 Not Reported 1.79 N 1.12 W 4.47 W No 0.000 No Precipitation 06/13/2019 06:06 PM 06/13/2019 06:13 PM 0.000 0.000 0.000 0.000 0.000 Not Reported Not Reported
07/12/2019 11:45 PM 69.62 57.56 48.74 90.32 47.30 47.0 Not Reported 0.89 N 1.34 NW 4.47 W No 0.000 No Precipitation 06/13/2019 06:06 PM 06/13/2019 06:13 PM 0.000 0.000 0.000 0.000 0.000 Not Reported Not Reported
07/12/2019 11:50 PM 69.80 57.74 48.92 90.32 47.30 47.0 Not Reported 1.79 N 2.68 N 3.80 NW No 0.000 No Precipitation 06/13/2019 06:06 PM 06/13/2019 06:13 PM 0.000 0.000 0.000 0.000 0.000 Not Reported Not Reported
07/12/2019 11:55 PM 69.62 57.74 48.92 90.32 47.30 47.0 Not Reported 1.57 N 0.67 NE 3.80 NW No 0.000 No Precipitation 06/13/2019 06:06 PM 06/13/2019 06:13 PM 0.000 0.000 0.000 0.000 0.000 Not Reported Not Reported